Time;durP1;ratioP1;P1;durP2;ratioP2;P2;SDS_P1;SDS_P2;PMS_P1;PMS_P2;Temp;Humidity;BMP_temperature;BMP_pressure;BME280_temperature;BME280_humidity;BME280_pressure;Samples;Min_cycle;Max_cycle;Signal;HPM_P1;HPM_P2
2021/11/06 00:00:23;;;;;;;10.48;2.65;;;;;;;;;;4981454;28;20029;-61
2021/11/06 00:02:49;;;;;;;9.65;2.45;;;;;;;;;;4982415;28;20555;-61
2021/11/06 00:05:15;;;;;;;3.53;1.60;;;;;;;;;;4997779;28;20033;-60
2021/11/06 00:07:43;;;;;;;6.30;1.80;;;;;;;;;;4987973;28;20029;-60
2021/11/06 00:10:10;;;;;;;4.38;1.80;;;;;;;;;;4999138;28;20030;-61
2021/11/06 00:12:37;;;;;;;2.67;1.45;;;;;;;;;;4987748;28;20033;-61
2021/11/06 00:15:03;;;;;;;6.28;1.70;;;;;;;;;;4998377;28;20037;-62
2021/11/06 00:17:31;;;;;;;7.93;1.83;;;;;;;;;;4985250;28;20472;-61
2021/11/06 00:19:57;;;;;;;6.72;1.88;;;;;;;;;;4977179;28;20040;-61
2021/11/06 00:22:22;;;;;;;8.48;1.83;;;;;;;;;;4986589;28;20034;-60
2021/11/06 00:24:50;;;;;;;5.57;1.77;;;;;;;;;;4988370;28;20033;-61
2021/11/06 00:27:19;;;;;;;5.57;1.58;;;;;;;;;;4979827;28;20079;-60
2021/11/06 00:29:46;;;;;;;6.35;1.65;;;;;;;;;;4960945;28;20137;-62
2021/11/06 00:32:12;;;;;;;12.25;1.85;;;;;;;;;;4996732;28;20072;-60
2021/11/06 00:34:37;;;;;;;4.65;1.20;;;;;;;;;;4962636;28;20045;-60
2021/11/06 00:37:03;;;;;;;2.28;1.23;;;;;;;;;;4985608;28;20116;-60
2021/11/06 00:39:28;;;;;;;5.07;1.52;;;;;;;;;;4962296;28;20164;-61
2021/11/06 00:41:54;;;;;;;15.68;1.42;;;;;;;;;;4997349;28;20491;-60
2021/11/06 00:44:22;;;;;;;5.50;2.03;;;;;;;;;;4981434;28;20147;-60
2021/11/06 00:46:51;;;;;;;2.35;1.52;;;;;;;;;;4969088;28;20645;-60
2021/11/06 00:49:20;;;;;;;8.93;1.70;;;;;;;;;;4991955;28;20757;-61
2021/11/06 00:51:45;;;;;;;2.30;1.60;;;;;;;;;;4996015;28;20096;-62
2021/11/06 00:54:13;;;;;;;2.15;1.65;;;;;;;;;;4977407;28;20587;-60
2021/11/06 00:56:41;;;;;;;9.30;2.47;;;;;;;;;;4986162;28;20141;-60
2021/11/06 00:59:11;;;;;;;10.82;2.30;;;;;;;;;;4994428;28;20038;-61
2021/11/06 01:01:42;;;;;;;5.78;2.15;;;;;;;;;;4987022;28;20037;-62
2021/11/06 01:04:10;;;;;;;16.85;2.20;;;;;;;;;;4986349;28;20025;-60
2021/11/06 01:06:42;;;;;;;3.80;2.05;;;;;;;;;;4980304;28;20033;-60
2021/11/06 01:09:08;;;;;;;7.50;2.95;;;;;;;;;;4984451;28;20044;-59
2021/11/06 01:11:36;;;;;;;12.23;2.13;;;;;;;;;;4997036;28;20108;-60
2021/11/06 01:14:04;;;;;;;3.50;1.42;;;;;;;;;;4995228;28;20028;-60
2021/11/06 01:16:29;;;;;;;4.53;1.52;;;;;;;;;;4964611;28;20040;-61
2021/11/06 01:18:58;;;;;;;8.55;1.77;;;;;;;;;;4994176;28;20600;-61
2021/11/06 01:21:27;;;;;;;6.70;1.88;;;;;;;;;;4981088;28;20060;-61
2021/11/06 01:23:52;;;;;;;11.38;1.88;;;;;;;;;;4976637;28;20123;-60
2021/11/06 01:26:18;;;;;;;3.53;1.90;;;;;;;;;;4978707;28;20021;-60
2021/11/06 01:28:43;;;;;;;11.98;2.05;;;;;;;;;;4998338;28;21027;-62
2021/11/06 01:31:09;;;;;;;3.08;1.95;;;;;;;;;;4967174;28;20036;-60
2021/11/06 01:33:34;;;;;;;9.57;1.67;;;;;;;;;;4995461;28;20042;-61
2021/11/06 01:36:00;;;;;;;9.48;2.55;;;;;;;;;;4998178;28;20040;-60
2021/11/06 01:38:25;;;;;;;3.75;1.83;;;;;;;;;;4980473;28;20046;-60
2021/11/06 01:40:51;;;;;;;6.22;2.33;;;;;;;;;;4997645;28;20056;-61
2021/11/06 01:43:22;;;;;;;7.38;2.75;;;;;;;;;;4987992;28;20087;-62
2021/11/06 01:45:59;;;;;;;4.65;2.38;;;;;;;;;;4997707;28;20433;-60
2021/11/06 01:48:32;;;;;;;3.28;2.20;;;;;;;;;;4980286;28;20034;-60
2021/11/06 01:50:59;;;;;;;10.20;2.60;;;;;;;;;;4983422;28;20210;-59
2021/11/06 01:53:27;;;;;;;10.25;2.63;;;;;;;;;;4983935;28;20046;-59
2021/11/06 01:55:55;;;;;;;5.55;2.83;;;;;;;;;;4991619;28;21939;-59
2021/11/06 01:58:21;;;;;;;5.40;2.55;;;;;;;;;;4969180;28;20029;-59
2021/11/06 02:00:49;;;;;;;14.13;3.50;;;;;;;;;;5000565;28;20026;-61
2021/11/06 02:03:17;;;;;;;13.40;3.67;;;;;;;;;;4979616;28;20034;-60
2021/11/06 02:05:44;;;;;;;8.27;3.35;;;;;;;;;;4951497;28;20030;-60
2021/11/06 02:08:13;;;;;;;20.60;3.65;;;;;;;;;;4991883;28;20055;-60
2021/11/06 02:10:43;;;;;;;13.13;4.47;;;;;;;;;;4992713;28;20038;-62
2021/11/06 02:13:12;;;;;;;8.35;4.20;;;;;;;;;;4967870;28;20670;-60
2021/11/06 02:15:39;;;;;;;14.32;5.78;;;;;;;;;;4993901;28;20093;-60
2021/11/06 02:18:10;;;;;;;12.35;5.80;;;;;;;;;;4976397;28;20043;-60
2021/11/06 02:20:44;;;;;;;10.73;5.50;;;;;;;;;;4994483;28;20049;-59
2021/11/06 02:23:13;;;;;;;19.45;6.93;;;;;;;;;;4993876;28;21011;-60
2021/11/06 02:25:41;;;;;;;19.08;7.70;;;;;;;;;;4993725;28;20025;-60
2021/11/06 02:28:06;;;;;;;21.60;8.05;;;;;;;;;;4993385;28;20285;-59
2021/11/06 02:30:37;;;;;;;11.30;5.93;;;;;;;;;;4994995;28;20109;-59
2021/11/06 02:33:05;;;;;;;15.05;6.78;;;;;;;;;;4994182;28;20200;-58
2021/11/06 02:35:31;;;;;;;20.48;5.90;;;;;;;;;;4995253;28;20078;-59
2021/11/06 02:37:59;;;;;;;15.65;6.03;;;;;;;;;;4994500;28;20112;-61
2021/11/06 02:40:27;;;;;;;17.17;6.65;;;;;;;;;;4967699;28;22096;-59
2021/11/06 02:42:56;;;;;;;16.17;6.25;;;;;;;;;;4993691;28;20037;-59
2021/11/06 02:45:21;;;;;;;17.05;5.47;;;;;;;;;;4996110;28;20119;-59
2021/11/06 02:47:49;;;;;;;13.57;5.18;;;;;;;;;;4972297;28;20030;-59
2021/11/06 02:50:17;;;;;;;11.60;5.80;;;;;;;;;;4972025;28;20829;-59
2021/11/06 02:52:43;;;;;;;13.65;6.10;;;;;;;;;;4989349;28;20048;-59
2021/11/06 02:55:11;;;;;;;10.68;6.20;;;;;;;;;;4979761;28;20022;-60
2021/11/06 02:57:41;;;;;;;11.80;7.15;;;;;;;;;;4970769;28;20037;-59
2021/11/06 03:00:15;;;;;;;20.45;7.93;;;;;;;;;;4999191;28;20088;-60
2021/11/06 03:02:45;;;;;;;12.07;6.70;;;;;;;;;;4983682;28;20045;-59
2021/11/06 03:05:12;;;;;;;17.85;7.65;;;;;;;;;;4998934;28;20148;-58
2021/11/06 03:07:40;;;;;;;16.00;8.10;;;;;;;;;;4998152;28;20044;-59
2021/11/06 03:10:09;;;;;;;16.00;9.60;;;;;;;;;;4980350;28;20033;-60
2021/11/06 03:12:38;;;;;;;15.65;7.43;;;;;;;;;;4999252;28;20040;-59
2021/11/06 03:15:06;;;;;;;15.50;8.93;;;;;;;;;;4973239;28;20068;-60
2021/11/06 03:17:32;;;;;;;21.70;9.27;;;;;;;;;;4980627;28;20042;-59
2021/11/06 03:20:02;;;;;;;19.55;9.02;;;;;;;;;;4993371;28;20063;-59
2021/11/06 03:22:35;;;;;;;26.05;9.68;;;;;;;;;;4987832;28;20033;-59
2021/11/06 03:25:06;;;;;;;19.88;10.05;;;;;;;;;;4971784;28;20075;-59
2021/11/06 03:27:34;;;;;;;21.20;10.60;;;;;;;;;;4998394;28;20038;-59
2021/11/06 03:30:02;;;;;;;21.80;9.95;;;;;;;;;;4981472;28;20045;-60
2021/11/06 03:32:29;;;;;;;24.20;8.95;;;;;;;;;;4998727;28;20033;-59
2021/11/06 03:34:55;;;;;;;24.08;9.60;;;;;;;;;;4967366;28;20889;-61
2021/11/06 03:37:21;;;;;;;26.27;8.85;;;;;;;;;;4980406;28;20045;-59
2021/11/06 03:39:46;;;;;;;18.85;7.93;;;;;;;;;;4965170;28;20032;-59
2021/11/06 03:42:11;;;;;;;23.98;7.45;;;;;;;;;;4979520;28;20323;-58
2021/11/06 03:44:41;;;;;;;19.55;7.68;;;;;;;;;;4982496;28;20072;-60
2021/11/06 03:47:09;;;;;;;20.33;6.97;;;;;;;;;;4971736;28;20048;-60
2021/11/06 03:49:35;;;;;;;16.67;6.95;;;;;;;;;;4969337;28;20140;-60
2021/11/06 03:52:03;;;;;;;25.45;8.32;;;;;;;;;;4992201;28;20045;-58
2021/11/06 03:54:30;;;;;;;19.45;7.80;;;;;;;;;;4984156;28;20033;-59
2021/11/06 03:56:58;;;;;;;20.42;7.40;;;;;;;;;;4967216;28;20045;-59
2021/11/06 03:59:24;;;;;;;22.77;7.78;;;;;;;;;;4968592;28;20034;-59
2021/11/06 04:01:54;;;;;;;26.42;8.85;;;;;;;;;;4980322;28;20123;-58
2021/11/06 04:04:22;;;;;;;20.70;8.13;;;;;;;;;;4970680;28;20026;-61
2021/11/06 04:06:50;;;;;;;21.95;8.25;;;;;;;;;;4989080;28;21322;-59
2021/11/06 04:09:15;;;;;;;16.42;7.97;;;;;;;;;;4980521;28;20149;-59
2021/11/06 04:11:40;;;;;;;33.70;8.90;;;;;;;;;;4981097;28;20056;-59
2021/11/06 04:14:06;;;;;;;24.90;8.82;;;;;;;;;;4979842;28;20131;-59
2021/11/06 04:16:31;;;;;;;27.13;8.05;;;;;;;;;;4978844;28;20041;-59
2021/11/06 04:19:04;;;;;;;15.95;7.88;;;;;;;;;;4997370;28;20034;-59
2021/11/06 04:21:32;;;;;;;18.08;8.52;;;;;;;;;;4997661;28;20045;-59
2021/11/06 04:24:00;;;;;;;17.98;7.28;;;;;;;;;;4995967;28;20056;-59
2021/11/06 04:26:32;;;;;;;27.10;8.80;;;;;;;;;;4997767;28;20033;-60
2021/11/06 04:28:58;;;;;;;37.08;9.23;;;;;;;;;;4999784;28;20148;-59
2021/11/06 04:31:24;;;;;;;23.25;9.85;;;;;;;;;;4998878;28;20036;-62
2021/11/06 04:33:51;;;;;;;22.27;8.70;;;;;;;;;;4996677;28;20029;-59
2021/11/06 04:36:19;;;;;;;24.63;10.32;;;;;;;;;;4954946;28;20741;-59
2021/11/06 04:38:52;;;;;;;30.50;11.55;;;;;;;;;;4979095;28;20041;-59
2021/11/06 04:41:21;;;;;;;27.23;11.50;;;;;;;;;;4982066;28;20049;-61
2021/11/06 04:43:48;;;;;;;28.05;12.07;;;;;;;;;;4984550;28;20026;-59
2021/11/06 04:46:17;;;;;;;27.67;12.02;;;;;;;;;;4993801;28;20033;-60
2021/11/06 04:48:45;;;;;;;28.75;10.20;;;;;;;;;;4985247;28;21073;-59
2021/11/06 04:51:11;;;;;;;26.33;10.43;;;;;;;;;;4980236;28;20151;-58
2021/11/06 04:53:39;;;;;;;25.27;11.35;;;;;;;;;;4968350;28;20401;-60
2021/11/06 04:56:07;;;;;;;25.45;11.27;;;;;;;;;;4994205;28;20034;-60
2021/11/06 04:58:37;;;;;;;29.95;11.82;;;;;;;;;;4978477;28;20029;-60
2021/11/06 05:01:03;;;;;;;25.52;12.30;;;;;;;;;;4964569;28;20025;-60
2021/11/06 05:03:32;;;;;;;31.35;13.13;;;;;;;;;;4994856;28;20025;-60
2021/11/06 05:05:58;;;;;;;37.92;13.13;;;;;;;;;;4985072;28;20061;-59
2021/11/06 05:08:23;;;;;;;31.83;13.93;;;;;;;;;;4980338;28;20536;-58
2021/11/06 05:10:49;;;;;;;32.78;13.90;;;;;;;;;;4981912;28;20058;-59
2021/11/06 05:13:17;;;;;;;32.75;14.15;;;;;;;;;;4998581;28;20033;-58
2021/11/06 05:15:47;;;;;;;32.95;13.60;;;;;;;;;;4994284;28;20839;-59
2021/11/06 05:18:16;;;;;;;33.28;14.52;;;;;;;;;;4965273;28;20771;-60
2021/11/06 05:20:43;;;;;;;41.38;16.42;;;;;;;;;;4981166;28;20090;-60
2021/11/06 05:23:13;;;;;;;32.58;14.32;;;;;;;;;;4996119;28;20113;-61
2021/11/06 05:25:39;;;;;;;42.35;15.45;;;;;;;;;;4968766;28;20034;-60
2021/11/06 05:28:05;;;;;;;38.28;15.18;;;;;;;;;;4978879;28;20029;-59
2021/11/06 05:30:33;;;;;;;36.35;16.70;;;;;;;;;;4994239;28;20037;-60
2021/11/06 05:33:00;;;;;;;34.78;17.33;;;;;;;;;;4998542;28;20047;-60
2021/11/06 05:35:26;;;;;;;36.30;15.40;;;;;;;;;;4984943;28;20072;-60
2021/11/06 05:37:51;;;;;;;40.35;16.58;;;;;;;;;;4985827;28;20125;-60
2021/11/06 05:40:17;;;;;;;36.85;17.63;;;;;;;;;;4995607;28;20064;-59
2021/11/06 05:42:42;;;;;;;39.60;17.33;;;;;;;;;;4965450;28;20026;-60
2021/11/06 05:45:10;;;;;;;41.92;18.23;;;;;;;;;;4964077;28;20084;-59
2021/11/06 05:47:39;;;;;;;48.97;19.40;;;;;;;;;;4974639;28;20033;-59
2021/11/06 05:50:09;;;;;;;40.33;17.95;;;;;;;;;;4996401;28;20057;-60
2021/11/06 05:52:35;;;;;;;50.17;20.20;;;;;;;;;;4996202;28;20389;-60
2021/11/06 05:55:03;;;;;;;43.38;19.45;;;;;;;;;;4995971;28;20029;-60
2021/11/06 05:57:32;;;;;;;49.90;20.48;;;;;;;;;;4970125;28;20076;-59
2021/11/06 06:00:05;;;;;;;48.38;19.98;;;;;;;;;;4995044;28;20144;-59
2021/11/06 06:02:31;;;;;;;54.85;20.35;;;;;;;;;;4967582;28;20030;-60
2021/11/06 06:04:57;;;;;;;46.25;19.25;;;;;;;;;;4982037;28;20044;-60
2021/11/06 06:07:25;;;;;;;61.45;20.80;;;;;;;;;;4996045;28;20089;-60
2021/11/06 06:09:50;;;;;;;45.55;19.95;;;;;;;;;;4976441;28;20067;-60
2021/11/06 06:12:20;;;;;;;45.40;20.30;;;;;;;;;;4976347;28;20040;-60
2021/11/06 06:14:48;;;;;;;47.70;20.67;;;;;;;;;;4975622;28;20430;-60
2021/11/06 06:17:16;;;;;;;45.95;20.15;;;;;;;;;;4996586;28;20037;-60
2021/11/06 06:19:47;;;;;;;47.40;18.83;;;;;;;;;;4984175;28;20560;-61
2021/11/06 06:22:15;;;;;;;49.45;19.73;;;;;;;;;;4999473;28;20592;-60
2021/11/06 06:24:43;;;;;;;45.25;20.23;;;;;;;;;;4999079;28;20030;-61
2021/11/06 06:27:09;;;;;;;41.85;21.20;;;;;;;;;;4998260;28;20037;-61
2021/11/06 06:29:35;;;;;;;41.30;18.88;;;;;;;;;;4982672;28;20724;-60
2021/11/06 06:32:02;;;;;;;42.88;19.42;;;;;;;;;;4964179;28;20056;-59
2021/11/06 06:34:33;;;;;;;47.95;19.70;;;;;;;;;;4968560;28;20030;-60
2021/11/06 06:37:01;;;;;;;47.95;17.63;;;;;;;;;;5000745;28;20560;-59
2021/11/06 06:39:29;;;;;;;35.92;16.92;;;;;;;;;;4965422;28;20088;-60
2021/11/06 06:41:57;;;;;;;38.75;17.20;;;;;;;;;;4999516;28;20116;-60
2021/11/06 06:44:24;;;;;;;39.10;17.55;;;;;;;;;;4985102;28;20032;-59
2021/11/06 06:46:50;;;;;;;39.08;17.35;;;;;;;;;;4982743;28;20033;-60
2021/11/06 06:49:20;;;;;;;41.65;20.05;;;;;;;;;;4984125;28;20033;-59
2021/11/06 06:51:48;;;;;;;47.47;20.25;;;;;;;;;;4982518;28;22171;-60
2021/11/06 06:54:16;;;;;;;38.85;19.88;;;;;;;;;;4984393;28;20127;-59
2021/11/06 06:56:44;;;;;;;52.42;20.55;;;;;;;;;;4998814;28;21075;-60
2021/11/06 06:59:09;;;;;;;47.97;20.35;;;;;;;;;;4999317;28;20042;-59
2021/11/06 07:01:34;;;;;;;39.08;19.25;;;;;;;;;;4984027;28;20563;-59
2021/11/06 07:04:00;;;;;;;38.53;18.17;;;;;;;;;;5000194;28;20025;-59
2021/11/06 07:06:25;;;;;;;54.92;22.92;;;;;;;;;;4973956;28;20054;-60
2021/11/06 07:08:53;;;;;;;43.35;21.48;;;;;;;;;;4966964;28;20041;-60
2021/11/06 07:11:19;;;;;;;53.08;20.45;;;;;;;;;;4989820;28;20021;-59
2021/11/06 07:13:45;;;;;;;37.90;17.67;;;;;;;;;;4998293;28;20069;-60
2021/11/06 07:16:11;;;;;;;42.38;19.25;;;;;;;;;;4996064;28;20034;-60
2021/11/06 07:18:37;;;;;;;33.65;17.27;;;;;;;;;;4982340;28;20038;-59
2021/11/06 07:21:03;;;;;;;39.00;17.63;;;;;;;;;;4982063;28;20030;-59
2021/11/06 07:23:29;;;;;;;45.50;16.08;;;;;;;;;;4981413;28;20061;-59
2021/11/06 07:26:00;;;;;;;39.20;16.73;;;;;;;;;;4979834;28;20029;-60
2021/11/06 07:28:30;;;;;;;41.75;17.35;;;;;;;;;;4984294;28;20042;-60
2021/11/06 07:30:58;;;;;;;44.45;17.85;;;;;;;;;;4980430;28;20085;-59
2021/11/06 07:33:27;;;;;;;41.38;17.15;;;;;;;;;;4986247;28;20437;-59
2021/11/06 07:35:57;;;;;;;31.25;16.13;;;;;;;;;;4995010;28;20137;-60
2021/11/06 07:38:23;;;;;;;33.58;15.32;;;;;;;;;;4997420;28;20092;-59
2021/11/06 07:40:53;;;;;;;32.35;16.63;;;;;;;;;;4967420;28;20531;-59
2021/11/06 07:43:24;;;;;;;32.45;16.15;;;;;;;;;;4998587;28;20033;-59
2021/11/06 07:45:50;;;;;;;43.72;17.33;;;;;;;;;;4968499;28;20041;-59
2021/11/06 07:48:15;;;;;;;39.63;16.58;;;;;;;;;;4953439;28;20053;-59
2021/11/06 07:50:41;;;;;;;33.60;15.60;;;;;;;;;;4948916;28;20046;-58
2021/11/06 07:53:09;;;;;;;35.95;16.10;;;;;;;;;;4980183;28;20060;-60
2021/11/06 07:55:34;;;;;;;34.55;15.95;;;;;;;;;;4996831;28;20034;-60
2021/11/06 07:58:02;;;;;;;32.10;15.27;;;;;;;;;;4998953;28;20250;-59
2021/11/06 08:00:28;;;;;;;31.02;13.98;;;;;;;;;;4971741;28;20056;-59
2021/11/06 08:02:56;;;;;;;28.30;13.57;;;;;;;;;;4999501;28;20053;-60
2021/11/06 08:05:22;;;;;;;30.70;13.35;;;;;;;;;;4976491;28;20029;-59
2021/11/06 08:07:50;;;;;;;30.95;13.30;;;;;;;;;;4978107;28;20025;-58
2021/11/06 08:10:15;;;;;;;28.60;13.98;;;;;;;;;;4999391;28;20091;-58
2021/11/06 08:12:43;;;;;;;31.08;13.13;;;;;;;;;;4966051;28;20052;-58
2021/11/06 08:15:14;;;;;;;30.50;12.63;;;;;;;;;;4981122;28;20038;-59
2021/11/06 08:17:40;;;;;;;39.20;15.02;;;;;;;;;;4999032;28;20725;-59
2021/11/06 08:20:06;;;;;;;27.02;13.55;;;;;;;;;;4999098;28;20065;-59
2021/11/06 08:22:35;;;;;;;36.10;13.23;;;;;;;;;;4998664;28;20037;-59
2021/11/06 08:25:01;;;;;;;40.83;13.93;;;;;;;;;;4997544;28;20029;-59
2021/11/06 08:27:27;;;;;;;36.00;13.57;;;;;;;;;;4978529;28;20021;-59
2021/11/06 08:29:55;;;;;;;33.15;14.50;;;;;;;;;;4985892;28;20386;-59
2021/11/06 08:32:20;;;;;;;35.30;15.52;;;;;;;;;;4998407;28;20093;-59
2021/11/06 08:34:48;;;;;;;29.65;14.85;;;;;;;;;;4996282;28;20033;-59
2021/11/06 08:37:16;;;;;;;32.70;13.00;;;;;;;;;;4996628;28;20069;-60
2021/11/06 08:39:45;;;;;;;27.83;13.57;;;;;;;;;;4996564;28;20040;-59
2021/11/06 08:42:10;;;;;;;30.17;12.45;;;;;;;;;;4980356;28;20026;-59
2021/11/06 08:44:39;;;;;;;34.08;13.18;;;;;;;;;;4969606;28;20029;-60
2021/11/06 08:47:04;;;;;;;33.60;11.98;;;;;;;;;;4978520;28;20044;-59
2021/11/06 08:49:30;;;;;;;23.23;10.98;;;;;;;;;;4979356;28;20045;-59
2021/11/06 08:51:58;;;;;;;21.02;10.35;;;;;;;;;;4981139;28;20473;-60
2021/11/06 08:54:26;;;;;;;20.48;10.20;;;;;;;;;;4995283;28;20033;-60
2021/11/06 08:56:52;;;;;;;20.70;9.73;;;;;;;;;;4968632;28;20048;-60
2021/11/06 08:59:20;;;;;;;26.55;10.52;;;;;;;;;;4994145;28;20140;-60
2021/11/06 09:01:51;;;;;;;24.25;11.15;;;;;;;;;;4996037;28;20037;-59
2021/11/06 09:04:17;;;;;;;22.10;9.88;;;;;;;;;;4981822;28;20630;-59
2021/11/06 09:06:45;;;;;;;25.02;10.75;;;;;;;;;;4997372;28;20017;-59
2021/11/06 09:09:14;;;;;;;25.60;9.73;;;;;;;;;;4982328;28;20053;-60
2021/11/06 09:11:40;;;;;;;20.83;11.35;;;;;;;;;;4982993;28;20037;-60
2021/11/06 09:14:12;;;;;;;24.48;10.85;;;;;;;;;;4997631;28;20037;-60
2021/11/06 09:16:37;;;;;;;20.98;10.20;;;;;;;;;;4974489;28;20033;-59
2021/11/06 09:19:07;;;;;;;28.83;10.38;;;;;;;;;;4978999;28;20035;-59
2021/11/06 09:21:34;;;;;;;25.92;10.57;;;;;;;;;;4982868;28;20052;-59
2021/11/06 09:24:05;;;;;;;23.83;9.93;;;;;;;;;;4996433;28;20108;-58
2021/11/06 09:26:35;;;;;;;19.40;9.88;;;;;;;;;;4983533;28;20721;-59
2021/11/06 09:29:04;;;;;;;25.23;10.73;;;;;;;;;;4999628;28;20030;-59
2021/11/06 09:31:29;;;;;;;19.35;9.73;;;;;;;;;;4989183;28;20515;-59
2021/11/06 09:33:57;;;;;;;24.38;10.98;;;;;;;;;;4999320;28;20034;-59
2021/11/06 09:36:23;;;;;;;23.95;9.70;;;;;;;;;;4983093;28;21915;-59
2021/11/06 09:38:51;;;;;;;23.58;10.35;;;;;;;;;;5000019;28;20033;-60
2021/11/06 09:41:19;;;;;;;21.75;9.93;;;;;;;;;;4999031;28;20033;-60
2021/11/06 09:43:47;;;;;;;19.70;9.48;;;;;;;;;;4990181;28;20049;-58
2021/11/06 09:46:13;;;;;;;26.85;9.73;;;;;;;;;;4964018;28;20076;-59
2021/11/06 09:48:43;;;;;;;22.92;8.40;;;;;;;;;;4998508;28;20121;-58
2021/11/06 09:51:12;;;;;;;20.85;9.98;;;;;;;;;;4998834;28;20053;-60
2021/11/06 09:53:41;;;;;;;17.83;9.15;;;;;;;;;;4976485;28;20129;-58
2021/11/06 09:56:08;;;;;;;19.10;9.45;;;;;;;;;;5000876;28;20038;-59
2021/11/06 09:58:37;;;;;;;19.25;9.15;;;;;;;;;;4982852;28;20520;-58
2021/11/06 10:01:03;;;;;;;20.00;9.60;;;;;;;;;;5001966;28;20022;-60
2021/11/06 10:03:28;;;;;;;26.42;8.82;;;;;;;;;;5001347;28;20061;-59
2021/11/06 10:06:00;;;;;;;19.02;9.35;;;;;;;;;;4986397;28;20037;-59
2021/11/06 10:08:34;;;;;;;20.38;8.93;;;;;;;;;;4982101;28;20049;-59
2021/11/06 10:11:02;;;;;;;22.80;9.05;;;;;;;;;;4991410;28;20033;-60
2021/11/06 10:13:28;;;;;;;16.05;8.82;;;;;;;;;;4999096;28;20971;-59
2021/11/06 10:15:59;;;;;;;23.85;9.40;;;;;;;;;;4976697;28;20034;-60
2021/11/06 10:18:26;;;;;;;20.25;9.35;;;;;;;;;;4998262;28;20693;-59
2021/11/06 10:21:04;;;;;;;23.05;8.00;;;;;;;;;;5002018;28;20038;-59
2021/11/06 10:23:36;;;;;;;24.10;10.45;;;;;;;;;;4999073;28;20144;-59
2021/11/06 10:26:13;;;;;;;30.55;8.93;;;;;;;;;;4988616;28;20029;-59
2021/11/06 10:28:42;;;;;;;25.48;9.48;;;;;;;;;;4999171;28;20145;-59
2021/11/06 10:31:07;;;;;;;20.48;8.80;;;;;;;;;;4985472;28;20079;-60
2021/11/06 10:33:42;;;;;;;19.55;8.23;;;;;;;;;;5001672;28;20796;-60
2021/11/06 10:36:15;;;;;;;22.30;8.18;;;;;;;;;;4974579;28;21059;-60
2021/11/06 10:38:43;;;;;;;21.27;9.73;;;;;;;;;;4985934;28;20042;-59
2021/11/06 10:41:09;;;;;;;23.13;8.02;;;;;;;;;;5001602;28;20087;-59
2021/11/06 10:43:36;;;;;;;16.63;9.25;;;;;;;;;;4971916;28;20396;-59
2021/11/06 10:46:03;;;;;;;22.35;8.52;;;;;;;;;;5000130;28;20106;-59
2021/11/06 10:48:34;;;;;;;23.35;8.60;;;;;;;;;;4985986;28;20034;-59
2021/11/06 10:51:04;;;;;;;19.80;8.48;;;;;;;;;;4982833;28;20041;-60
2021/11/06 10:53:30;;;;;;;22.88;8.75;;;;;;;;;;5000818;28;20044;-60
2021/11/06 10:55:56;;;;;;;27.42;8.73;;;;;;;;;;5000269;28;20129;-60
2021/11/06 10:58:25;;;;;;;20.90;8.00;;;;;;;;;;4997802;28;20061;-59
2021/11/06 11:00:53;;;;;;;19.98;7.82;;;;;;;;;;4999996;28;20043;-61
2021/11/06 11:03:26;;;;;;;18.40;8.68;;;;;;;;;;4999919;28;20033;-60
2021/11/06 11:05:51;;;;;;;18.55;8.25;;;;;;;;;;4999604;28;20041;-60
2021/11/06 11:08:22;;;;;;;18.10;7.68;;;;;;;;;;5000099;28;20025;-59
2021/11/06 11:10:50;;;;;;;23.35;9.02;;;;;;;;;;4983528;28;20069;-58
2021/11/06 11:13:18;;;;;;;17.23;8.38;;;;;;;;;;4989831;28;20053;-60
2021/11/06 11:15:53;;;;;;;21.02;8.80;;;;;;;;;;5000665;28;20141;-60
2021/11/06 11:18:35;;;;;;;17.58;8.13;;;;;;;;;;4999687;28;20022;-59
2021/11/06 11:21:10;;;;;;;17.92;8.45;;;;;;;;;;4988497;28;20685;-60
2021/11/06 11:23:35;;;;;;;18.65;7.38;;;;;;;;;;4997098;28;20161;-60
2021/11/06 11:26:01;;;;;;;21.85;8.68;;;;;;;;;;4977903;28;20026;-61
2021/11/06 11:28:27;;;;;;;21.85;8.52;;;;;;;;;;4976115;28;20040;-59
2021/11/06 11:30:57;;;;;;;23.73;8.85;;;;;;;;;;4998293;28;20081;-59
2021/11/06 11:33:25;;;;;;;21.77;8.88;;;;;;;;;;4984012;28;20049;-58
2021/11/06 11:35:51;;;;;;;24.38;9.25;;;;;;;;;;4988426;28;20036;-60
2021/11/06 11:38:18;;;;;;;27.77;9.98;;;;;;;;;;4994849;28;20053;-59
2021/11/06 11:40:50;;;;;;;29.83;9.93;;;;;;;;;;4994183;28;20028;-62
2021/11/06 11:43:42;;;;;;;23.42;9.43;;;;;;;;;;4995921;28;20089;-61
2021/11/06 11:46:10;;;;;;;20.77;9.73;;;;;;;;;;4978904;28;20028;-59
2021/11/06 11:48:36;;;;;;;20.58;9.90;;;;;;;;;;4996689;28;20029;-59
2021/11/06 11:51:05;;;;;;;22.83;9.45;;;;;;;;;;4988295;28;23142;-60
2021/11/06 11:53:36;;;;;;;24.98;10.30;;;;;;;;;;4974770;28;20041;-60
2021/11/06 11:56:17;;;;;;;18.25;9.45;;;;;;;;;;4995679;28;20037;-60
2021/11/06 11:58:46;;;;;;;22.02;9.13;;;;;;;;;;4986465;28;20093;-59
2021/11/06 12:01:20;;;;;;;23.45;9.60;;;;;;;;;;4993309;28;20145;-60
2021/11/06 12:03:55;;;;;;;21.60;9.63;;;;;;;;;;4964616;28;20034;-59
2021/11/06 12:06:20;;;;;;;22.27;9.55;;;;;;;;;;4993465;28;20030;-60
2021/11/06 12:08:46;;;;;;;25.67;10.18;;;;;;;;;;4979414;28;20057;-60
2021/11/06 12:11:14;;;;;;;27.08;10.02;;;;;;;;;;4981702;28;20048;-59
2021/11/06 12:13:40;;;;;;;19.77;9.23;;;;;;;;;;4999330;28;20029;-59
2021/11/06 12:16:06;;;;;;;21.70;9.57;;;;;;;;;;4989826;28;20029;-59
2021/11/06 12:18:32;;;;;;;16.83;9.02;;;;;;;;;;4995785;28;20038;-60
2021/11/06 12:21:17;;;;;;;22.92;9.23;;;;;;;;;;4998759;28;20114;-60
2021/11/06 12:23:43;;;;;;;16.08;9.25;;;;;;;;;;4983342;28;20045;-60
2021/11/06 12:26:20;;;;;;;23.55;8.88;;;;;;;;;;4988516;28;20025;-61
2021/11/06 12:29:13;;;;;;;17.10;8.00;;;;;;;;;;4994956;28;20037;-60
2021/11/06 12:31:43;;;;;;;26.02;9.02;;;;;;;;;;4990151;28;20038;-60
2021/11/06 12:34:10;;;;;;;26.83;8.75;;;;;;;;;;4999728;28;20125;-62
2021/11/06 12:36:42;;;;;;;25.60;8.75;;;;;;;;;;4980379;28;20557;-62
2021/11/06 12:39:11;;;;;;;16.60;7.45;;;;;;;;;;4988661;28;20095;-60
2021/11/06 12:41:37;;;;;;;15.70;7.30;;;;;;;;;;4989329;28;20026;-59
2021/11/06 12:44:10;;;;;;;17.80;8.23;;;;;;;;;;4980693;28;20049;-60
2021/11/06 12:46:39;;;;;;;17.35;7.13;;;;;;;;;;4984989;28;20056;-59
2021/11/06 12:49:08;;;;;;;17.77;7.55;;;;;;;;;;4980281;28;20058;-60
2021/11/06 12:51:37;;;;;;;13.80;6.47;;;;;;;;;;4998260;28;20817;-59
2021/11/06 12:54:07;;;;;;;13.85;6.35;;;;;;;;;;4975836;28;20092;-59
2021/11/06 12:56:36;;;;;;;15.93;7.30;;;;;;;;;;4999228;28;20025;-60
2021/11/06 12:59:06;;;;;;;13.95;6.72;;;;;;;;;;4997409;28;20544;-60
2021/11/06 13:01:35;;;;;;;11.57;6.38;;;;;;;;;;4979847;28;20040;-59
2021/11/06 13:04:07;;;;;;;17.42;6.43;;;;;;;;;;4980541;28;20025;-59
2021/11/06 13:06:36;;;;;;;14.60;7.05;;;;;;;;;;4979482;28;20113;-60
2021/11/06 13:09:05;;;;;;;12.55;5.78;;;;;;;;;;4998061;28;20036;-60
2021/11/06 13:11:52;;;;;;;14.23;5.90;;;;;;;;;;4963340;28;20061;-61
2021/11/06 13:14:38;;;;;;;18.17;5.78;;;;;;;;;;4997261;28;20039;-60
2021/11/06 13:17:24;;;;;;;18.90;6.75;;;;;;;;;;4980026;28;20032;-61
2021/11/06 13:20:05;;;;;;;15.95;5.97;;;;;;;;;;4979260;28;20108;-60
2021/11/06 13:22:33;;;;;;;17.05;6.40;;;;;;;;;;4972798;28;20586;-59
2021/11/06 13:25:02;;;;;;;14.18;6.50;;;;;;;;;;4996162;28;20029;-59
2021/11/06 13:27:40;;;;;;;17.73;6.30;;;;;;;;;;4979978;28;20053;-60
2021/11/06 13:30:14;;;;;;;21.13;6.50;;;;;;;;;;4993912;28;20041;-61
2021/11/06 13:33:09;;;;;;;;;;;;;;;;;;;;;
2021/11/06 13:35:45;;;;;;;17.40;6.88;;;;;;;;;;4987115;28;20077;-59
2021/11/06 13:38:12;;;;;;;20.08;7.65;;;;;;;;;;4979536;28;20033;-59
2021/11/06 13:40:42;;;;;;;20.95;6.80;;;;;;;;;;4996187;28;20151;-59
2021/11/06 13:43:14;;;;;;;26.05;7.00;;;;;;;;;;4997325;28;20026;-60
2021/11/06 13:45:56;;;;;;;18.02;6.78;;;;;;;;;;4998932;28;20026;-60
2021/11/06 13:48:22;;;;;;;14.75;7.78;;;;;;;;;;4995661;28;20056;-61
2021/11/06 13:50:48;;;;;;;14.20;6.80;;;;;;;;;;4967777;28;20135;-61
2021/11/06 13:53:15;;;;;;;16.10;7.18;;;;;;;;;;4979835;28;20041;-61
2021/11/06 13:55:41;;;;;;;20.50;7.68;;;;;;;;;;4996555;28;20040;-61
2021/11/06 13:58:08;;;;;;;13.65;6.63;;;;;;;;;;4998767;28;20025;-58
2021/11/06 14:00:36;;;;;;;22.48;7.55;;;;;;;;;;4987057;28;20049;-59
2021/11/06 14:03:02;;;;;;;15.40;7.00;;;;;;;;;;4964312;28;20144;-59
2021/11/06 14:05:27;;;;;;;20.98;7.35;;;;;;;;;;4961303;28;20130;-60
2021/11/06 14:07:56;;;;;;;12.60;6.72;;;;;;;;;;4970675;28;20709;-59
2021/11/06 14:10:23;;;;;;;16.85;7.28;;;;;;;;;;4997341;28;20038;-60
2021/11/06 14:12:53;;;;;;;21.40;6.70;;;;;;;;;;4981647;28;20159;-59
2021/11/06 14:15:27;;;;;;;13.55;6.13;;;;;;;;;;4996578;28;20041;-60
2021/11/06 14:17:54;;;;;;;9.43;6.13;;;;;;;;;;4987068;28;20037;-59
2021/11/06 14:20:34;;;;;;;16.20;5.40;;;;;;;;;;4969531;28;20030;-60
2021/11/06 14:23:00;;;;;;;14.90;6.15;;;;;;;;;;4997159;28;20034;-60
2021/11/06 14:25:27;;;;;;;13.48;6.13;;;;;;;;;;4979466;28;20053;-60
2021/11/06 14:28:04;;;;;;;16.95;6.07;;;;;;;;;;4995601;28;20053;-59
2021/11/06 14:30:30;;;;;;;12.48;5.70;;;;;;;;;;4965336;28;20755;-60
2021/11/06 14:33:03;;;;;;;14.75;5.65;;;;;;;;;;4996649;28;20025;-59
2021/11/06 14:35:29;;;;;;;10.85;5.60;;;;;;;;;;4981388;28;20047;-60